sensor_id;sensor_type;location;lat;lon;timestamp;P1;durP1;ratioP1;P2;durP2;ratioP2
22480;SDS011;11407;56.964;-2.212;2022-08-19T00:00:28;2.20;;;1.23;;
22480;SDS011;11407;56.964;-2.212;2022-08-19T00:02:53;3.10;;;1.40;;
22480;SDS011;11407;56.964;-2.212;2022-08-19T00:05:19;3.27;;;1.10;;
22480;SDS011;11407;56.964;-2.212;2022-08-19T00:07:46;2.03;;;1.30;;
22480;SDS011;11407;56.964;-2.212;2022-08-19T00:10:14;1.73;;;1.17;;
22480;SDS011;11407;56.964;-2.212;2022-08-19T00:12:41;1.60;;;1.00;;
22480;SDS011;11407;56.964;-2.212;2022-08-19T00:15:08;2.67;;;1.10;;
22480;SDS011;11407;56.964;-2.212;2022-08-19T00:17:37;4.37;;;1.10;;
22480;SDS011;11407;56.964;-2.212;2022-08-19T00:20:04;2.60;;;1.00;;
22480;SDS011;11407;56.964;-2.212;2022-08-19T00:22:30;2.50;;;1.20;;
22480;SDS011;11407;56.964;-2.212;2022-08-19T00:24:56;1.73;;;1.20;;
22480;SDS011;11407;56.964;-2.212;2022-08-19T00:27:21;2.47;;;1.20;;
22480;SDS011;11407;56.964;-2.212;2022-08-19T00:29:47;4.10;;;1.07;;
22480;SDS011;11407;56.964;-2.212;2022-08-19T00:32:12;2.63;;;1.30;;
22480;SDS011;11407;56.964;-2.212;2022-08-19T00:34:38;3.67;;;1.20;;
22480;SDS011;11407;56.964;-2.212;2022-08-19T00:37:03;3.23;;;1.30;;
22480;SDS011;11407;56.964;-2.212;2022-08-19T00:39:29;17.67;;;1.87;;
22480;SDS011;11407;56.964;-2.212;2022-08-19T00:41:55;3.57;;;1.00;;
22480;SDS011;11407;56.964;-2.212;2022-08-19T00:44:23;4.00;;;1.30;;
22480;SDS011;11407;56.964;-2.212;2022-08-19T00:46:52;2.77;;;1.10;;
22480;SDS011;11407;56.964;-2.212;2022-08-19T00:49:23;3.33;;;1.33;;
22480;SDS011;11407;56.964;-2.212;2022-08-19T00:52:15;2.63;;;1.00;;
22480;SDS011;11407;56.964;-2.212;2022-08-19T00:55:02;3.87;;;1.40;;
22480;SDS011;11407;56.964;-2.212;2022-08-19T00:57:32;1.93;;;1.10;;
22480;SDS011;11407;56.964;-2.212;2022-08-19T01:00:05;4.43;;;1.20;;
22480;SDS011;11407;56.964;-2.212;2022-08-19T01:02:36;4.57;;;1.37;;
22480;SDS011;11407;56.964;-2.212;2022-08-19T01:05:03;2.40;;;1.10;;
22480;SDS011;11407;56.964;-2.212;2022-08-19T01:07:31;2.87;;;1.50;;
22480;SDS011;11407;56.964;-2.212;2022-08-19T01:09:59;3.73;;;1.60;;
22480;SDS011;11407;56.964;-2.212;2022-08-19T01:12:24;4.57;;;1.37;;
22480;SDS011;11407;56.964;-2.212;2022-08-19T01:14:50;3.87;;;1.20;;
22480;SDS011;11407;56.964;-2.212;2022-08-19T01:17:17;1.87;;;1.20;;
22480;SDS011;11407;56.964;-2.212;2022-08-19T01:19:44;3.83;;;1.97;;
22480;SDS011;11407;56.964;-2.212;2022-08-19T01:24:45;2.93;;;1.20;;
22480;SDS011;11407;56.964;-2.212;2022-08-19T01:27:10;2.70;;;1.40;;
22480;SDS011;11407;56.964;-2.212;2022-08-19T01:29:37;3.53;;;1.50;;
22480;SDS011;11407;56.964;-2.212;2022-08-19T01:32:05;2.97;;;1.13;;
22480;SDS011;11407;56.964;-2.212;2022-08-19T01:34:32;3.43;;;1.20;;
22480;SDS011;11407;56.964;-2.212;2022-08-19T01:36:59;3.70;;;1.43;;
22480;SDS011;11407;56.964;-2.212;2022-08-19T01:39:26;3.53;;;1.40;;
22480;SDS011;11407;56.964;-2.212;2022-08-19T01:41:53;2.87;;;1.30;;
22480;SDS011;11407;56.964;-2.212;2022-08-19T01:44:19;3.43;;;1.43;;
22480;SDS011;11407;56.964;-2.212;2022-08-19T01:46:48;2.70;;;1.37;;
22480;SDS011;11407;56.964;-2.212;2022-08-19T01:49:14;5.03;;;1.67;;
22480;SDS011;11407;56.964;-2.212;2022-08-19T01:51:41;3.50;;;1.37;;
22480;SDS011;11407;56.964;-2.212;2022-08-19T01:54:07;3.60;;;1.50;;
22480;SDS011;11407;56.964;-2.212;2022-08-19T01:56:34;2.87;;;1.47;;
22480;SDS011;11407;56.964;-2.212;2022-08-19T01:59:02;4.37;;;1.33;;
22480;SDS011;11407;56.964;-2.212;2022-08-19T02:01:32;4.93;;;1.50;;
22480;SDS011;11407;56.964;-2.212;2022-08-19T02:03:59;4.87;;;1.37;;
22480;SDS011;11407;56.964;-2.212;2022-08-19T02:06:25;4.80;;;1.33;;
22480;SDS011;11407;56.964;-2.212;2022-08-19T02:08:52;4.93;;;1.73;;
22480;SDS011;11407;56.964;-2.212;2022-08-19T02:11:19;5.03;;;1.40;;
22480;SDS011;11407;56.964;-2.212;2022-08-19T02:13:46;6.00;;;1.53;;
22480;SDS011;11407;56.964;-2.212;2022-08-19T02:16:14;4.47;;;1.40;;
22480;SDS011;11407;56.964;-2.212;2022-08-19T02:18:41;6.13;;;1.37;;
22480;SDS011;11407;56.964;-2.212;2022-08-19T02:21:06;3.90;;;1.53;;
22480;SDS011;11407;56.964;-2.212;2022-08-19T02:23:32;4.20;;;1.40;;
22480;SDS011;11407;56.964;-2.212;2022-08-19T02:25:57;4.50;;;1.70;;
22480;SDS011;11407;56.964;-2.212;2022-08-19T02:28:23;3.90;;;1.73;;
22480;SDS011;11407;56.964;-2.212;2022-08-19T02:30:48;3.87;;;1.33;;
22480;SDS011;11407;56.964;-2.212;2022-08-19T02:33:14;9.20;;;1.60;;
22480;SDS011;11407;56.964;-2.212;2022-08-19T02:35:46;5.17;;;1.50;;
22480;SDS011;11407;56.964;-2.212;2022-08-19T02:38:12;5.60;;;1.50;;
22480;SDS011;11407;56.964;-2.212;2022-08-19T02:40:51;5.03;;;1.60;;
22480;SDS011;11407;56.964;-2.212;2022-08-19T02:43:19;5.03;;;1.83;;
22480;SDS011;11407;56.964;-2.212;2022-08-19T02:45:46;7.40;;;1.83;;
22480;SDS011;11407;56.964;-2.212;2022-08-19T02:48:14;5.10;;;2.10;;
22480;SDS011;11407;56.964;-2.212;2022-08-19T02:50:43;4.70;;;1.77;;
22480;SDS011;11407;56.964;-2.212;2022-08-19T02:53:10;5.93;;;1.80;;
22480;SDS011;11407;56.964;-2.212;2022-08-19T02:55:35;5.60;;;1.83;;
22480;SDS011;11407;56.964;-2.212;2022-08-19T02:58:01;16.00;;;2.40;;
22480;SDS011;11407;56.964;-2.212;2022-08-19T03:00:26;5.47;;;1.70;;
22480;SDS011;11407;56.964;-2.212;2022-08-19T03:02:52;4.93;;;1.80;;
22480;SDS011;11407;56.964;-2.212;2022-08-19T03:05:18;7.40;;;2.03;;
22480;SDS011;11407;56.964;-2.212;2022-08-19T03:07:44;5.50;;;2.00;;
22480;SDS011;11407;56.964;-2.212;2022-08-19T03:10:10;6.30;;;2.10;;
22480;SDS011;11407;56.964;-2.212;2022-08-19T03:12:37;7.23;;;2.10;;
22480;SDS011;11407;56.964;-2.212;2022-08-19T03:15:06;3.23;;;1.50;;
22480;SDS011;11407;56.964;-2.212;2022-08-19T03:17:33;8.97;;;1.97;;
22480;SDS011;11407;56.964;-2.212;2022-08-19T03:19:59;5.83;;;1.90;;
22480;SDS011;11407;56.964;-2.212;2022-08-19T03:22:25;7.20;;;2.10;;
22480;SDS011;11407;56.964;-2.212;2022-08-19T03:24:50;8.00;;;1.97;;
22480;SDS011;11407;56.964;-2.212;2022-08-19T03:27:16;10.63;;;2.20;;
22480;SDS011;11407;56.964;-2.212;2022-08-19T03:29:42;5.87;;;1.83;;
22480;SDS011;11407;56.964;-2.212;2022-08-19T03:32:08;6.57;;;1.90;;
22480;SDS011;11407;56.964;-2.212;2022-08-19T03:34:35;6.87;;;1.90;;
22480;SDS011;11407;56.964;-2.212;2022-08-19T03:37:04;7.07;;;2.17;;
22480;SDS011;11407;56.964;-2.212;2022-08-19T03:39:31;5.67;;;2.17;;
22480;SDS011;11407;56.964;-2.212;2022-08-19T03:41:57;8.67;;;2.33;;
22480;SDS011;11407;56.964;-2.212;2022-08-19T03:44:25;5.60;;;1.80;;
22480;SDS011;11407;56.964;-2.212;2022-08-19T03:46:54;6.03;;;1.93;;
22480;SDS011;11407;56.964;-2.212;2022-08-19T03:49:22;5.93;;;1.77;;
22480;SDS011;11407;56.964;-2.212;2022-08-19T03:51:49;5.80;;;1.97;;
22480;SDS011;11407;56.964;-2.212;2022-08-19T03:54:17;4.03;;;1.87;;
22480;SDS011;11407;56.964;-2.212;2022-08-19T03:56:45;7.87;;;2.07;;
22480;SDS011;11407;56.964;-2.212;2022-08-19T03:59:13;5.10;;;1.77;;
22480;SDS011;11407;56.964;-2.212;2022-08-19T04:01:41;6.53;;;1.80;;
22480;SDS011;11407;56.964;-2.212;2022-08-19T04:04:07;6.23;;;1.70;;
22480;SDS011;11407;56.964;-2.212;2022-08-19T04:06:34;7.03;;;1.83;;
22480;SDS011;11407;56.964;-2.212;2022-08-19T04:09:02;3.90;;;1.43;;
22480;SDS011;11407;56.964;-2.212;2022-08-19T04:11:31;5.10;;;1.70;;
22480;SDS011;11407;56.964;-2.212;2022-08-19T04:13:59;6.50;;;1.87;;
22480;SDS011;11407;56.964;-2.212;2022-08-19T04:16:26;5.77;;;2.10;;
22480;SDS011;11407;56.964;-2.212;2022-08-19T04:18:54;6.80;;;1.73;;
22480;SDS011;11407;56.964;-2.212;2022-08-19T04:21:25;6.37;;;2.20;;
22480;SDS011;11407;56.964;-2.212;2022-08-19T04:23:52;5.87;;;1.63;;
22480;SDS011;11407;56.964;-2.212;2022-08-19T04:26:23;5.60;;;2.37;;
22480;SDS011;11407;56.964;-2.212;2022-08-19T04:28:50;6.63;;;1.90;;
22480;SDS011;11407;56.964;-2.212;2022-08-19T04:31:18;6.17;;;2.10;;
22480;SDS011;11407;56.964;-2.212;2022-08-19T04:33:45;8.73;;;2.10;;
22480;SDS011;11407;56.964;-2.212;2022-08-19T04:36:17;5.73;;;1.70;;
22480;SDS011;11407;56.964;-2.212;2022-08-19T04:38:45;9.83;;;2.40;;
22480;SDS011;11407;56.964;-2.212;2022-08-19T04:41:14;7.87;;;2.00;;
22480;SDS011;11407;56.964;-2.212;2022-08-19T04:43:59;4.97;;;1.90;;
22480;SDS011;11407;56.964;-2.212;2022-08-19T04:46:24;7.93;;;1.67;;
22480;SDS011;11407;56.964;-2.212;2022-08-19T04:48:50;7.70;;;1.93;;
22480;SDS011;11407;56.964;-2.212;2022-08-19T04:51:16;7.60;;;1.90;;
22480;SDS011;11407;56.964;-2.212;2022-08-19T04:53:41;9.40;;;1.97;;
22480;SDS011;11407;56.964;-2.212;2022-08-19T04:56:08;6.57;;;1.90;;
22480;SDS011;11407;56.964;-2.212;2022-08-19T04:58:39;5.03;;;1.93;;
22480;SDS011;11407;56.964;-2.212;2022-08-19T05:01:13;4.90;;;1.57;;
22480;SDS011;11407;56.964;-2.212;2022-08-19T05:03:42;3.23;;;1.63;;
22480;SDS011;11407;56.964;-2.212;2022-08-19T05:06:09;7.37;;;1.90;;
22480;SDS011;11407;56.964;-2.212;2022-08-19T05:08:37;4.80;;;1.93;;
22480;SDS011;11407;56.964;-2.212;2022-08-19T05:11:08;5.03;;;1.50;;
22480;SDS011;11407;56.964;-2.212;2022-08-19T05:13:36;7.53;;;1.80;;
22480;SDS011;11407;56.964;-2.212;2022-08-19T05:16:02;8.83;;;1.93;;
22480;SDS011;11407;56.964;-2.212;2022-08-19T05:18:28;5.83;;;1.47;;
22480;SDS011;11407;56.964;-2.212;2022-08-19T05:21:13;7.27;;;1.67;;
22480;SDS011;11407;56.964;-2.212;2022-08-19T05:23:59;7.50;;;1.90;;
22480;SDS011;11407;56.964;-2.212;2022-08-19T05:26:25;5.70;;;1.77;;
22480;SDS011;11407;56.964;-2.212;2022-08-19T05:28:51;4.53;;;1.77;;
22480;SDS011;11407;56.964;-2.212;2022-08-19T05:31:17;4.50;;;1.97;;
22480;SDS011;11407;56.964;-2.212;2022-08-19T05:33:43;8.20;;;2.30;;
22480;SDS011;11407;56.964;-2.212;2022-08-19T05:36:09;5.83;;;1.93;;
22480;SDS011;11407;56.964;-2.212;2022-08-19T05:38:35;6.13;;;1.70;;
22480;SDS011;11407;56.964;-2.212;2022-08-19T05:41:01;9.53;;;2.20;;
22480;SDS011;11407;56.964;-2.212;2022-08-19T05:43:31;6.33;;;2.00;;
22480;SDS011;11407;56.964;-2.212;2022-08-19T05:45:57;7.90;;;2.30;;
22480;SDS011;11407;56.964;-2.212;2022-08-19T05:48:23;6.37;;;1.63;;
22480;SDS011;11407;56.964;-2.212;2022-08-19T05:50:48;8.27;;;1.67;;
22480;SDS011;11407;56.964;-2.212;2022-08-19T05:53:15;7.83;;;2.00;;
22480;SDS011;11407;56.964;-2.212;2022-08-19T05:55:41;7.07;;;1.83;;
22480;SDS011;11407;56.964;-2.212;2022-08-19T05:58:07;7.77;;;1.63;;
22480;SDS011;11407;56.964;-2.212;2022-08-19T06:00:32;3.80;;;1.30;;
22480;SDS011;11407;56.964;-2.212;2022-08-19T06:02:59;9.47;;;1.80;;
22480;SDS011;11407;56.964;-2.212;2022-08-19T06:05:28;10.13;;;1.63;;
22480;SDS011;11407;56.964;-2.212;2022-08-19T06:07:55;3.47;;;1.30;;
22480;SDS011;11407;56.964;-2.212;2022-08-19T06:10:20;5.57;;;1.40;;
22480;SDS011;11407;56.964;-2.212;2022-08-19T06:12:47;6.57;;;1.63;;
22480;SDS011;11407;56.964;-2.212;2022-08-19T06:15:13;6.33;;;1.70;;
22480;SDS011;11407;56.964;-2.212;2022-08-19T06:17:39;5.20;;;1.53;;
22480;SDS011;11407;56.964;-2.212;2022-08-19T06:20:07;5.30;;;1.50;;
22480;SDS011;11407;56.964;-2.212;2022-08-19T06:22:41;5.23;;;1.77;;
22480;SDS011;11407;56.964;-2.212;2022-08-19T06:25:08;6.80;;;1.50;;
22480;SDS011;11407;56.964;-2.212;2022-08-19T06:27:34;7.23;;;1.67;;
22480;SDS011;11407;56.964;-2.212;2022-08-19T06:30:01;4.80;;;1.33;;
22480;SDS011;11407;56.964;-2.212;2022-08-19T06:32:27;7.07;;;1.80;;
22480;SDS011;11407;56.964;-2.212;2022-08-19T06:34:52;5.47;;;1.50;;
22480;SDS011;11407;56.964;-2.212;2022-08-19T06:37:18;4.43;;;1.40;;
22480;SDS011;11407;56.964;-2.212;2022-08-19T06:39:43;6.07;;;1.57;;
22480;SDS011;11407;56.964;-2.212;2022-08-19T06:42:10;5.53;;;1.67;;
22480;SDS011;11407;56.964;-2.212;2022-08-19T06:44:39;6.40;;;1.60;;
22480;SDS011;11407;56.964;-2.212;2022-08-19T06:47:07;5.87;;;1.30;;
22480;SDS011;11407;56.964;-2.212;2022-08-19T06:49:34;4.80;;;1.50;;
22480;SDS011;11407;56.964;-2.212;2022-08-19T06:52:00;8.20;;;1.50;;
22480;SDS011;11407;56.964;-2.212;2022-08-19T06:54:26;5.57;;;1.40;;
22480;SDS011;11407;56.964;-2.212;2022-08-19T06:56:54;7.07;;;1.57;;
22480;SDS011;11407;56.964;-2.212;2022-08-19T06:59:21;6.37;;;1.70;;
22480;SDS011;11407;56.964;-2.212;2022-08-19T07:01:52;5.43;;;1.53;;
22480;SDS011;11407;56.964;-2.212;2022-08-19T07:04:20;7.27;;;1.73;;
22480;SDS011;11407;56.964;-2.212;2022-08-19T07:06:49;8.07;;;1.60;;
22480;SDS011;11407;56.964;-2.212;2022-08-19T07:09:17;5.20;;;1.97;;
22480;SDS011;11407;56.964;-2.212;2022-08-19T07:11:44;6.37;;;1.53;;
22480;SDS011;11407;56.964;-2.212;2022-08-19T07:14:11;9.53;;;1.67;;
22480;SDS011;11407;56.964;-2.212;2022-08-19T07:16:39;6.10;;;1.63;;
22480;SDS011;11407;56.964;-2.212;2022-08-19T07:19:04;4.77;;;1.40;;
22480;SDS011;11407;56.964;-2.212;2022-08-19T07:21:30;5.27;;;1.67;;
22480;SDS011;11407;56.964;-2.212;2022-08-19T07:23:56;4.93;;;1.57;;
22480;SDS011;11407;56.964;-2.212;2022-08-19T07:26:25;4.20;;;1.40;;
22480;SDS011;11407;56.964;-2.212;2022-08-19T07:28:52;7.63;;;1.67;;
22480;SDS011;11407;56.964;-2.212;2022-08-19T07:31:20;6.67;;;1.87;;
22480;SDS011;11407;56.964;-2.212;2022-08-19T07:33:48;6.17;;;1.50;;
22480;SDS011;11407;56.964;-2.212;2022-08-19T07:36:15;7.97;;;2.00;;
22480;SDS011;11407;56.964;-2.212;2022-08-19T07:38:50;5.10;;;1.70;;
22480;SDS011;11407;56.964;-2.212;2022-08-19T07:41:21;5.53;;;1.60;;
22480;SDS011;11407;56.964;-2.212;2022-08-19T07:43:48;5.37;;;1.77;;
22480;SDS011;11407;56.964;-2.212;2022-08-19T07:46:14;7.07;;;1.90;;
22480;SDS011;11407;56.964;-2.212;2022-08-19T07:48:41;4.83;;;1.70;;
22480;SDS011;11407;56.964;-2.212;2022-08-19T07:51:10;7.57;;;1.60;;
22480;SDS011;11407;56.964;-2.212;2022-08-19T07:53:38;5.37;;;1.60;;
22480;SDS011;11407;56.964;-2.212;2022-08-19T07:56:04;6.63;;;1.77;;
22480;SDS011;11407;56.964;-2.212;2022-08-19T07:58:31;5.40;;;1.77;;
22480;SDS011;11407;56.964;-2.212;2022-08-19T08:00:58;2.97;;;1.40;;
22480;SDS011;11407;56.964;-2.212;2022-08-19T08:03:24;7.50;;;2.07;;
22480;SDS011;11407;56.964;-2.212;2022-08-19T08:06:10;6.30;;;1.93;;
22480;SDS011;11407;56.964;-2.212;2022-08-19T08:08:56;4.87;;;1.50;;
22480;SDS011;11407;56.964;-2.212;2022-08-19T08:11:55;7.57;;;2.07;;
22480;SDS011;11407;56.964;-2.212;2022-08-19T08:14:32;4.83;;;1.40;;
22480;SDS011;11407;56.964;-2.212;2022-08-19T08:17:04;6.53;;;1.53;;
22480;SDS011;11407;56.964;-2.212;2022-08-19T08:19:30;4.03;;;1.53;;
22480;SDS011;11407;56.964;-2.212;2022-08-19T08:21:57;6.50;;;1.57;;
22480;SDS011;11407;56.964;-2.212;2022-08-19T08:24:25;8.20;;;1.87;;
22480;SDS011;11407;56.964;-2.212;2022-08-19T08:26:52;7.83;;;2.10;;
22480;SDS011;11407;56.964;-2.212;2022-08-19T08:29:18;3.40;;;1.27;;
22480;SDS011;11407;56.964;-2.212;2022-08-19T08:31:44;5.60;;;1.50;;
22480;SDS011;11407;56.964;-2.212;2022-08-19T08:34:10;4.93;;;1.50;;
22480;SDS011;11407;56.964;-2.212;2022-08-19T08:36:38;4.47;;;1.33;;
22480;SDS011;11407;56.964;-2.212;2022-08-19T08:39:12;4.37;;;1.40;;
22480;SDS011;11407;56.964;-2.212;2022-08-19T08:47:02;4.57;;;1.40;;
22480;SDS011;11407;56.964;-2.212;2022-08-19T08:52:11;3.13;;;1.53;;
22480;SDS011;11407;56.964;-2.212;2022-08-19T08:54:44;5.33;;;1.43;;
22480;SDS011;11407;56.964;-2.212;2022-08-19T08:57:17;3.23;;;1.10;;
22480;SDS011;11407;56.964;-2.212;2022-08-19T08:59:52;2.90;;;1.27;;
22480;SDS011;11407;56.964;-2.212;2022-08-19T09:02:22;4.40;;;1.20;;
22480;SDS011;11407;56.964;-2.212;2022-08-19T09:04:47;3.73;;;1.23;;
22480;SDS011;11407;56.964;-2.212;2022-08-19T09:16:03;2.10;;;1.00;;
22480;SDS011;11407;56.964;-2.212;2022-08-19T09:21:07;2.47;;;1.10;;
22480;SDS011;11407;56.964;-2.212;2022-08-19T09:23:34;3.40;;;1.20;;
22480;SDS011;11407;56.964;-2.212;2022-08-19T09:26:00;4.37;;;1.40;;
22480;SDS011;11407;56.964;-2.212;2022-08-19T09:28:26;1.93;;;1.10;;
22480;SDS011;11407;56.964;-2.212;2022-08-19T09:30:52;2.77;;;1.17;;
22480;SDS011;11407;56.964;-2.212;2022-08-19T09:33:17;5.43;;;1.27;;
22480;SDS011;11407;56.964;-2.212;2022-08-19T09:35:43;2.90;;;1.00;;
22480;SDS011;11407;56.964;-2.212;2022-08-19T09:38:08;3.50;;;1.23;;
22480;SDS011;11407;56.964;-2.212;2022-08-19T09:40:34;2.93;;;1.30;;
22480;SDS011;11407;56.964;-2.212;2022-08-19T09:43:00;5.53;;;1.33;;
22480;SDS011;11407;56.964;-2.212;2022-08-19T09:45:27;3.23;;;1.13;;
22480;SDS011;11407;56.964;-2.212;2022-08-19T09:47:53;2.83;;;1.20;;
22480;SDS011;11407;56.964;-2.212;2022-08-19T09:50:19;3.10;;;1.27;;
22480;SDS011;11407;56.964;-2.212;2022-08-19T09:52:46;3.70;;;1.40;;
22480;SDS011;11407;56.964;-2.212;2022-08-19T09:55:11;2.87;;;1.17;;
22480;SDS011;11407;56.964;-2.212;2022-08-19T09:57:37;3.53;;;1.50;;
22480;SDS011;11407;56.964;-2.212;2022-08-19T10:00:04;3.47;;;1.30;;
22480;SDS011;11407;56.964;-2.212;2022-08-19T10:02:31;4.33;;;1.50;;
22480;SDS011;11407;56.964;-2.212;2022-08-19T10:04:57;5.53;;;1.80;;
22480;SDS011;11407;56.964;-2.212;2022-08-19T10:07:41;5.53;;;1.50;;
22480;SDS011;11407;56.964;-2.212;2022-08-19T10:10:06;4.13;;;1.43;;
22480;SDS011;11407;56.964;-2.212;2022-08-19T10:12:33;3.47;;;1.70;;
22480;SDS011;11407;56.964;-2.212;2022-08-19T10:14:59;5.43;;;1.70;;
22480;SDS011;11407;56.964;-2.212;2022-08-19T10:17:25;3.23;;;1.70;;
22480;SDS011;11407;56.964;-2.212;2022-08-19T10:19:51;3.03;;;1.50;;
22480;SDS011;11407;56.964;-2.212;2022-08-19T10:22:17;5.83;;;1.40;;
22480;SDS011;11407;56.964;-2.212;2022-08-19T10:24:45;6.30;;;1.70;;
22480;SDS011;11407;56.964;-2.212;2022-08-19T10:27:11;4.73;;;1.20;;
22480;SDS011;11407;56.964;-2.212;2022-08-19T10:29:38;4.17;;;1.40;;
22480;SDS011;11407;56.964;-2.212;2022-08-19T10:32:05;2.87;;;1.40;;
22480;SDS011;11407;56.964;-2.212;2022-08-19T10:34:33;4.30;;;1.77;;
22480;SDS011;11407;56.964;-2.212;2022-08-19T10:37:01;3.23;;;1.20;;
22480;SDS011;11407;56.964;-2.212;2022-08-19T10:39:28;4.20;;;1.23;;
22480;SDS011;11407;56.964;-2.212;2022-08-19T10:41:55;2.80;;;1.43;;
22480;SDS011;11407;56.964;-2.212;2022-08-19T10:44:21;2.90;;;1.23;;
22480;SDS011;11407;56.964;-2.212;2022-08-19T10:46:48;3.13;;;1.50;;
22480;SDS011;11407;56.964;-2.212;2022-08-19T10:49:14;3.50;;;1.40;;
22480;SDS011;11407;56.964;-2.212;2022-08-19T10:51:40;3.57;;;1.60;;
22480;SDS011;11407;56.964;-2.212;2022-08-19T10:54:35;2.47;;;1.20;;
22480;SDS011;11407;56.964;-2.212;2022-08-19T10:57:19;3.63;;;1.33;;
22480;SDS011;11407;56.964;-2.212;2022-08-19T10:59:44;3.43;;;1.40;;
22480;SDS011;11407;56.964;-2.212;2022-08-19T11:02:11;3.00;;;1.50;;
22480;SDS011;11407;56.964;-2.212;2022-08-19T11:04:38;5.07;;;1.53;;
22480;SDS011;11407;56.964;-2.212;2022-08-19T11:07:05;4.03;;;1.60;;
22480;SDS011;11407;56.964;-2.212;2022-08-19T11:09:35;4.30;;;1.80;;
22480;SDS011;11407;56.964;-2.212;2022-08-19T11:12:03;3.67;;;1.33;;
22480;SDS011;11407;56.964;-2.212;2022-08-19T11:14:29;4.17;;;1.37;;
22480;SDS011;11407;56.964;-2.212;2022-08-19T11:16:56;3.97;;;1.20;;
22480;SDS011;11407;56.964;-2.212;2022-08-19T11:19:21;2.17;;;1.10;;
22480;SDS011;11407;56.964;-2.212;2022-08-19T11:21:49;2.97;;;1.17;;
22480;SDS011;11407;56.964;-2.212;2022-08-19T11:24:20;1.67;;;1.13;;
22480;SDS011;11407;56.964;-2.212;2022-08-19T11:26:48;4.73;;;1.03;;
22480;SDS011;11407;56.964;-2.212;2022-08-19T11:29:15;3.00;;;1.10;;
22480;SDS011;11407;56.964;-2.212;2022-08-19T11:31:44;2.67;;;1.20;;
22480;SDS011;11407;56.964;-2.212;2022-08-19T11:34:12;2.30;;;0.87;;
22480;SDS011;11407;56.964;-2.212;2022-08-19T11:36:41;2.90;;;1.03;;
22480;SDS011;11407;56.964;-2.212;2022-08-19T11:39:10;3.57;;;1.20;;
22480;SDS011;11407;56.964;-2.212;2022-08-19T11:41:38;2.77;;;1.20;;
22480;SDS011;11407;56.964;-2.212;2022-08-19T11:44:04;4.50;;;1.30;;
22480;SDS011;11407;56.964;-2.212;2022-08-19T11:46:31;2.50;;;1.10;;
22480;SDS011;11407;56.964;-2.212;2022-08-19T11:48:57;3.20;;;1.30;;
22480;SDS011;11407;56.964;-2.212;2022-08-19T11:51:24;4.33;;;1.03;;
22480;SDS011;11407;56.964;-2.212;2022-08-19T11:53:51;4.23;;;1.10;;
22480;SDS011;11407;56.964;-2.212;2022-08-19T11:56:18;4.03;;;1.40;;
22480;SDS011;11407;56.964;-2.212;2022-08-19T11:58:45;2.43;;;0.90;;
22480;SDS011;11407;56.964;-2.212;2022-08-19T12:01:11;3.00;;;1.30;;
22480;SDS011;11407;56.964;-2.212;2022-08-19T12:03:41;2.50;;;1.07;;
22480;SDS011;11407;56.964;-2.212;2022-08-19T12:06:09;2.33;;;1.00;;
22480;SDS011;11407;56.964;-2.212;2022-08-19T12:08:40;2.97;;;1.00;;
22480;SDS011;11407;56.964;-2.212;2022-08-19T12:11:06;1.30;;;0.90;;
22480;SDS011;11407;56.964;-2.212;2022-08-19T12:13:33;2.13;;;1.10;;
22480;SDS011;11407;56.964;-2.212;2022-08-19T12:15:59;6.00;;;0.97;;
22480;SDS011;11407;56.964;-2.212;2022-08-19T12:18:25;1.73;;;0.80;;
22480;SDS011;11407;56.964;-2.212;2022-08-19T12:20:51;4.70;;;1.10;;
22480;SDS011;11407;56.964;-2.212;2022-08-19T12:23:19;5.83;;;1.20;;
22480;SDS011;11407;56.964;-2.212;2022-08-19T12:25:46;3.67;;;1.03;;
22480;SDS011;11407;56.964;-2.212;2022-08-19T12:28:17;2.53;;;0.90;;
22480;SDS011;11407;56.964;-2.212;2022-08-19T12:30:43;2.83;;;1.10;;
22480;SDS011;11407;56.964;-2.212;2022-08-19T12:33:09;3.93;;;1.37;;
22480;SDS011;11407;56.964;-2.212;2022-08-19T12:35:34;5.43;;;1.50;;
22480;SDS011;11407;56.964;-2.212;2022-08-19T12:38:00;3.30;;;1.30;;
22480;SDS011;11407;56.964;-2.212;2022-08-19T12:40:27;4.53;;;1.60;;
22480;SDS011;11407;56.964;-2.212;2022-08-19T12:42:53;5.60;;;1.63;;
22480;SDS011;11407;56.964;-2.212;2022-08-19T12:45:19;4.23;;;1.40;;
22480;SDS011;11407;56.964;-2.212;2022-08-19T12:47:45;4.50;;;1.57;;
22480;SDS011;11407;56.964;-2.212;2022-08-19T12:50:11;5.30;;;1.57;;
22480;SDS011;11407;56.964;-2.212;2022-08-19T12:52:37;6.10;;;1.50;;
22480;SDS011;11407;56.964;-2.212;2022-08-19T12:55:04;8.20;;;2.07;;
22480;SDS011;11407;56.964;-2.212;2022-08-19T12:57:31;5.73;;;1.70;;
22480;SDS011;11407;56.964;-2.212;2022-08-19T13:00:03;2.77;;;1.40;;
22480;SDS011;11407;56.964;-2.212;2022-08-19T13:02:36;4.37;;;1.40;;
22480;SDS011;11407;56.964;-2.212;2022-08-19T13:05:03;2.80;;;1.03;;
22480;SDS011;11407;56.964;-2.212;2022-08-19T13:07:29;4.80;;;1.13;;
22480;SDS011;11407;56.964;-2.212;2022-08-19T13:09:56;1.97;;;0.87;;
22480;SDS011;11407;56.964;-2.212;2022-08-19T13:12:22;1.53;;;0.83;;
22480;SDS011;11407;56.964;-2.212;2022-08-19T13:14:51;3.53;;;1.03;;
22480;SDS011;11407;56.964;-2.212;2022-08-19T13:17:17;1.73;;;1.00;;
22480;SDS011;11407;56.964;-2.212;2022-08-19T13:19:43;1.87;;;0.90;;
22480;SDS011;11407;56.964;-2.212;2022-08-19T13:22:09;6.17;;;1.40;;
22480;SDS011;11407;56.964;-2.212;2022-08-19T13:24:34;3.17;;;1.10;;
22480;SDS011;11407;56.964;-2.212;2022-08-19T13:27:01;2.47;;;0.90;;
22480;SDS011;11407;56.964;-2.212;2022-08-19T13:29:27;2.37;;;1.00;;
22480;SDS011;11407;56.964;-2.212;2022-08-19T13:32:11;3.30;;;0.80;;
22480;SDS011;11407;56.964;-2.212;2022-08-19T13:34:55;1.90;;;0.90;;
22480;SDS011;11407;56.964;-2.212;2022-08-19T13:37:20;1.83;;;0.80;;
22480;SDS011;11407;56.964;-2.212;2022-08-19T13:40:06;3.80;;;1.00;;
22480;SDS011;11407;56.964;-2.212;2022-08-19T13:42:36;3.27;;;1.10;;
22480;SDS011;11407;56.964;-2.212;2022-08-19T13:45:02;2.33;;;1.00;;
22480;SDS011;11407;56.964;-2.212;2022-08-19T13:47:29;2.33;;;1.03;;
22480;SDS011;11407;56.964;-2.212;2022-08-19T13:49:55;2.47;;;1.07;;
22480;SDS011;11407;56.964;-2.212;2022-08-19T13:52:20;3.90;;;1.10;;
22480;SDS011;11407;56.964;-2.212;2022-08-19T13:54:46;3.27;;;1.00;;
22480;SDS011;11407;56.964;-2.212;2022-08-19T13:57:12;2.13;;;1.00;;
22480;SDS011;11407;56.964;-2.212;2022-08-19T13:59:38;4.07;;;1.30;;
22480;SDS011;11407;56.964;-2.212;2022-08-19T14:02:03;4.67;;;1.70;;
22480;SDS011;11407;56.964;-2.212;2022-08-19T14:04:30;2.90;;;1.37;;
22480;SDS011;11407;56.964;-2.212;2022-08-19T14:06:56;7.20;;;1.40;;
22480;SDS011;11407;56.964;-2.212;2022-08-19T14:09:21;6.70;;;1.53;;
22480;SDS011;11407;56.964;-2.212;2022-08-19T14:11:47;4.17;;;1.70;;
22480;SDS011;11407;56.964;-2.212;2022-08-19T14:14:12;6.07;;;1.73;;
22480;SDS011;11407;56.964;-2.212;2022-08-19T14:16:37;6.03;;;1.60;;
22480;SDS011;11407;56.964;-2.212;2022-08-19T14:19:03;4.33;;;1.23;;
22480;SDS011;11407;56.964;-2.212;2022-08-19T14:21:28;6.80;;;1.60;;
22480;SDS011;11407;56.964;-2.212;2022-08-19T14:23:54;5.13;;;2.00;;
22480;SDS011;11407;56.964;-2.212;2022-08-19T14:26:20;2.57;;;1.30;;
22480;SDS011;11407;56.964;-2.212;2022-08-19T14:28:46;4.37;;;1.20;;
22480;SDS011;11407;56.964;-2.212;2022-08-19T14:31:13;2.87;;;0.90;;
22480;SDS011;11407;56.964;-2.212;2022-08-19T14:33:43;2.10;;;0.90;;
22480;SDS011;11407;56.964;-2.212;2022-08-19T14:36:09;2.43;;;1.00;;
22480;SDS011;11407;56.964;-2.212;2022-08-19T14:38:35;2.37;;;0.90;;
22480;SDS011;11407;56.964;-2.212;2022-08-19T14:43:38;1.67;;;0.87;;
22480;SDS011;11407;56.964;-2.212;2022-08-19T14:46:04;1.57;;;0.93;;
22480;SDS011;11407;56.964;-2.212;2022-08-19T14:48:29;3.30;;;1.00;;
22480;SDS011;11407;56.964;-2.212;2022-08-19T14:50:55;2.50;;;0.80;;
22480;SDS011;11407;56.964;-2.212;2022-08-19T14:53:21;2.90;;;1.00;;
22480;SDS011;11407;56.964;-2.212;2022-08-19T14:55:46;2.67;;;1.20;;
22480;SDS011;11407;56.964;-2.212;2022-08-19T14:58:12;2.50;;;1.20;;
22480;SDS011;11407;56.964;-2.212;2022-08-19T15:00:39;1.67;;;0.97;;